This is the latest recevied weather packets stored in our database for station/object MB7UUE. If no packets are shown the sender has not sent any weather packets the latest 10 day(s).
| Time | Temp. | Humidity | Pressure | Rain* | Wind** | Luminosity | Snow |
|---|---|---|---|---|---|---|---|
| 1777621093 | 15° C | 46% | 1021.1 hPa | 0 mm | - | - | - |
| 1777620720 | 15° C | 46% | 1021.1 hPa | 0 mm | - | - | - |
| 1777619579 | 14.44° C | 53% | 1020.7 hPa | 0 mm | - | - | - |
| 1777618847 | 13.89° C | 53% | 1020.7 hPa | 0 mm | - | - | - |
| 1777618438 | 13.89° C | 53% | 1020.7 hPa | 0 mm | - | - | - |
| 1777617299 | 13.33° C | 56% | 1020.7 hPa | 0 mm | - | - | - |
| 1777616159 | 11.67° C | 61% | 1020.7 hPa | 0 mm | - | - | - |
| 1777615121 | 11.11° C | 63% | 1020.8 hPa | 0 mm | - | - | - |
| 1777615020 | 11.11° C | 63% | 1020.8 hPa | 0 mm | - | - | - |
| 1777614275 | 10.56° C | 65% | 1020.7 hPa | 0 mm | - | - | - |
| 1777613880 | 10.56° C | 65% | 1020.7 hPa | 0 mm | - | - | - |
| 1777612739 | 10.56° C | 65% | 1020.7 hPa | 0 mm | - | - | - |
| 1777611599 | 10.56° C | 64% | 1020.6 hPa | 0 mm | - | - | - |
| 1777610521 | 10° C | 62% | 1020.6 hPa | 0 mm | - | - | - |
| 1777610460 | 10° C | 62% | 1020.6 hPa | 0 mm | - | - | - |
| 1777609319 | 10° C | 61% | 1020.6 hPa | 0 mm | - | - | - |
| 1777608179 | 10° C | 62% | 1020.6 hPa | 0 mm | - | - | - |
| 1777608179 | 10° C | 62% | 1020.6 hPa | 0 mm | - | - | - |
| 1777607040 | 10° C | 61% | 1020.6 hPa | 0 mm | - | - | - |
| 1777607040 | 10° C | 61% | 1020.6 hPa | 0 mm | - | - | - |
| 1777605899 | 10° C | 60% | 1020.6 hPa | 0 mm | - | - | - |
| 1777604758 | 10° C | 62% | 1020.7 hPa | 0 mm | - | - | - |
| 1777603620 | 10.56° C | 63% | 1020.8 hPa | 0 mm | - | - | - |
| 1777602478 | 10.56° C | 64% | 1020.8 hPa | 0 mm | - | - | - |
| 1777601339 | 10.56° C | 64% | 1020.9 hPa | 0 mm | - | - | - |
* Rain latest hour (hover to see other rain measurements)
** Current wind speed in m/s (hover to see current wind gust speed)